Time;durP1;ratioP1;P1;durP2;ratioP2;P2;SDS_P1;SDS_P2;PMS_P1;PMS_P2;Temp;Humidity;BMP_temperature;BMP_pressure;BME280_temperature;BME280_humidity;BME280_pressure;Samples;Min_cycle;Max_cycle;Signal;HPM_P1;HPM_P2
2022/04/12 00:00:11;;;;;;;;;;;21.10;36.80;;;;;;5086433;28;20346;-59
2022/04/12 00:02:36;;;;;;;;;;;21.10;36.90;;;;;;5089404;28;19997;-59
2022/04/12 00:05:02;;;;;;;;;;;21.10;36.90;;;;;;5092019;28;19919;-59
2022/04/12 00:07:28;;;;;;;;;;;21.00;36.90;;;;;;5087610;28;19953;-59
2022/04/12 00:09:53;;;;;;;;;;;21.00;36.90;;;;;;5083379;28;19998;-59
2022/04/12 00:12:18;;;;;;;;;;;21.00;37.00;;;;;;5086748;28;20346;-59
2022/04/12 00:14:44;;;;;;;;;;;21.00;37.00;;;;;;5090253;28;19991;-59
2022/04/12 00:19:54;;;;;;;;;;;21.00;37.10;;;;;;5084372;28;19970;-60
2022/04/12 00:22:19;;;;;;;;;;;21.00;37.10;;;;;;5081304;28;20371;-59
2022/04/12 00:24:45;;;;;;;;;;;20.90;37.00;;;;;;5089095;28;20724;-59
2022/04/12 00:27:10;;;;;;;;;;;20.90;36.90;;;;;;5091590;28;20275;-59
2022/04/12 00:29:35;;;;;;;;;;;20.90;37.00;;;;;;5091586;28;19912;-58
2022/04/12 00:32:01;;;;;;;;;;;20.90;37.00;;;;;;5091475;28;19976;-59
2022/04/12 00:34:26;;;;;;;;;;;20.90;37.00;;;;;;5091351;28;20442;-59
2022/04/12 00:36:52;;;;;;;;;;;20.90;37.00;;;;;;5090711;28;20378;-59
2022/04/12 00:39:17;;;;;;;;;;;20.90;37.00;;;;;;5083650;28;19977;-59
2022/04/12 00:41:43;;;;;;;;;;;20.90;37.00;;;;;;5079821;28;19957;-59
2022/04/12 00:44:08;;;;;;;;;;;20.80;37.00;;;;;;5074767;28;19931;-59
2022/04/12 00:46:34;;;;;;;;;;;20.80;37.10;;;;;;5077629;28;19912;-59
2022/04/12 00:48:59;;;;;;;;;;;20.80;37.00;;;;;;5075817;28;19913;-59
2022/04/12 00:51:24;;;;;;;;;;;20.80;37.10;;;;;;5083912;28;20315;-59
2022/04/12 00:53:50;;;;;;;;;;;20.80;37.10;;;;;;5083816;28;19959;-59
2022/04/12 00:56:17;;;;;;;;;;;20.80;37.20;;;;;;5089844;28;19919;-59
2022/04/12 00:58:46;;;;;;;;;;;20.70;37.10;;;;;;5071664;28;19927;-59
2022/04/12 01:01:12;;;;;;;;;;;20.70;37.20;;;;;;5080732;28;19920;-59
2022/04/12 01:03:37;;;;;;;;;;;20.70;37.20;;;;;;5086814;28;19919;-59
2022/04/12 01:06:03;;;;;;;;;;;20.70;37.20;;;;;;5075114;28;19921;-59
2022/04/12 01:08:28;;;;;;;;;;;20.70;37.30;;;;;;5076131;28;19916;-59
2022/04/12 01:10:54;;;;;;;;;;;20.70;37.30;;;;;;5071385;28;19920;-59
2022/04/12 01:13:19;;;;;;;;;;;20.60;37.30;;;;;;5088463;28;19963;-59
2022/04/12 01:15:44;;;;;;;;;;;20.60;37.30;;;;;;5070212;28;19913;-59
2022/04/12 01:18:10;;;;;;;;;;;20.60;37.30;;;;;;5074929;28;20400;-59
2022/04/12 01:20:36;;;;;;;;;;;20.70;37.50;;;;;;5074720;28;20349;-59
2022/04/12 01:23:10;;;;;;;;;;;20.70;37.20;;;;;;5075954;28;19913;-59
2022/04/12 01:25:37;;;;;;;;;;;20.80;37.20;;;;;;5079113;28;19916;-58
2022/04/12 01:28:02;;;;;;;;;;;20.80;37.10;;;;;;5078810;28;19938;-60
2022/04/12 01:30:28;;;;;;;;;;;20.80;37.00;;;;;;5082116;28;19916;-59
2022/04/12 01:32:53;;;;;;;;;;;20.90;37.00;;;;;;5077982;28;19919;-59
2022/04/12 01:35:19;;;;;;;;;;;20.90;36.90;;;;;;5070607;28;19916;-59
2022/04/12 01:37:44;;;;;;;;;;;20.90;36.80;;;;;;5072222;28;20008;-62
2022/04/12 01:40:10;;;;;;;;;;;21.00;36.80;;;;;;5071270;28;19919;-59
2022/04/12 01:42:36;;;;;;;;;;;21.00;36.70;;;;;;5071970;28;20295;-59
2022/04/12 01:45:02;;;;;;;;;;;21.10;37.40;;;;;;5082253;28;19920;-59
2022/04/12 01:47:27;;;;;;;;;;;21.10;36.60;;;;;;5076434;28;19957;-59
2022/04/12 01:49:53;;;;;;;;;;;21.10;36.50;;;;;;5081549;28;20065;-59
2022/04/12 01:52:18;;;;;;;;;;;21.20;36.60;;;;;;5072637;28;19965;-59
2022/04/12 01:54:44;;;;;;;;;;;21.20;36.50;;;;;;5078511;28;19916;-59
2022/04/12 01:57:09;;;;;;;;;;;21.20;36.50;;;;;;5087274;28;20367;-59
2022/04/12 01:59:35;;;;;;;;;;;21.20;36.50;;;;;;5079712;28;20287;-59
2022/04/12 02:02:00;;;;;;;;;;;21.20;36.50;;;;;;5073706;28;19923;-59
2022/04/12 02:04:26;;;;;;;;;;;21.20;36.40;;;;;;5079128;28;20427;-59
2022/04/12 02:06:51;;;;;;;;;;;21.20;36.40;;;;;;5079657;28;19913;-59
2022/04/12 02:09:17;;;;;;;;;;;21.20;36.40;;;;;;5074613;28;19912;-59
2022/04/12 02:11:42;;;;;;;;;;;21.20;36.40;;;;;;5076460;28;19916;-59
2022/04/12 02:14:08;;;;;;;;;;;21.20;36.40;;;;;;5080949;28;19923;-59
2022/04/12 02:16:36;;;;;;;;;;;21.10;36.40;;;;;;5083897;28;19916;-59
2022/04/12 02:19:03;;;;;;;;;;;21.10;36.40;;;;;;5080312;28;20353;-58
2022/04/12 02:21:28;;;;;;;;;;;21.00;36.40;;;;;;5066584;28;19920;-59
2022/04/12 02:23:53;;;;;;;;;;;21.10;36.60;;;;;;5081321;28;19912;-59
2022/04/12 02:26:19;;;;;;;;;;;21.00;36.50;;;;;;5081797;28;19917;-59
2022/04/12 02:28:44;;;;;;;;;;;21.00;36.60;;;;;;5084572;28;19966;-59
2022/04/12 02:31:10;;;;;;;;;;;20.90;36.60;;;;;;5077835;28;19986;-59
2022/04/12 02:33:35;;;;;;;;;;;20.90;36.70;;;;;;5076954;28;19962;-59
2022/04/12 02:36:01;;;;;;;;;;;20.80;36.70;;;;;;5076854;28;19916;-59
2022/04/12 02:38:26;;;;;;;;;;;20.80;36.80;;;;;;5074094;28;19943;-59
2022/04/12 02:40:52;;;;;;;;;;;20.80;36.90;;;;;;5078000;28;19918;-59
2022/04/12 02:43:17;;;;;;;;;;;20.80;36.90;;;;;;5078012;28;20379;-60
2022/04/12 02:45:42;;;;;;;;;;;20.80;36.90;;;;;;5080256;28;19923;-59
2022/04/12 02:48:09;;;;;;;;;;;20.70;36.90;;;;;;5079815;28;19919;-59
2022/04/12 02:50:35;;;;;;;;;;;20.70;37.00;;;;;;5080191;28;20387;-59
2022/04/12 02:53:00;;;;;;;;;;;20.70;36.90;;;;;;5077825;28;19939;-59
2022/04/12 02:55:25;;;;;;;;;;;20.70;36.90;;;;;;5072045;28;19921;-59
2022/04/12 02:57:51;;;;;;;;;;;20.70;37.00;;;;;;5079471;28;20007;-59
2022/04/12 03:00:16;;;;;;;;;;;20.70;36.90;;;;;;5079981;28;20399;-59
2022/04/12 03:02:42;;;;;;;;;;;20.70;36.90;;;;;;5080292;28;19923;-59
2022/04/12 03:05:08;;;;;;;;;;;20.70;36.90;;;;;;5081775;28;19981;-59
2022/04/12 03:07:33;;;;;;;;;;;20.70;37.00;;;;;;5074999;28;19913;-59
2022/04/12 03:09:59;;;;;;;;;;;20.70;37.00;;;;;;5073669;28;19927;-59
2022/04/12 03:12:24;;;;;;;;;;;20.70;37.00;;;;;;5084879;28;19923;-59
2022/04/12 03:14:49;;;;;;;;;;;20.70;37.00;;;;;;5082570;28;19950;-59
2022/04/12 03:17:15;;;;;;;;;;;20.60;36.90;;;;;;5063585;28;19912;-59
2022/04/12 03:19:40;;;;;;;;;;;20.60;37.00;;;;;;5069966;28;19920;-59
2022/04/12 03:22:06;;;;;;;;;;;20.70;37.10;;;;;;5064809;28;19986;-59
2022/04/12 03:24:31;;;;;;;;;;;20.60;37.00;;;;;;5085547;28;19912;-59
2022/04/12 03:26:57;;;;;;;;;;;20.60;37.10;;;;;;5074109;28;19979;-59
2022/04/12 03:29:23;;;;;;;;;;;20.60;37.10;;;;;;5071803;28;19913;-59
2022/04/12 03:31:48;;;;;;;;;;;20.60;37.10;;;;;;5076894;28;19999;-59
2022/04/12 03:34:13;;;;;;;;;;;20.60;37.10;;;;;;5070738;28;19977;-59
2022/04/12 03:36:39;;;;;;;;;;;20.50;37.10;;;;;;5071650;28;19916;-59
2022/04/12 03:39:04;;;;;;;;;;;20.50;37.10;;;;;;5072579;28;19917;-59
2022/04/12 03:41:30;;;;;;;;;;;20.50;37.20;;;;;;5075673;28;20327;-59
2022/04/12 03:43:55;;;;;;;;;;;20.50;37.30;;;;;;5091502;28;20291;-59
2022/04/12 03:46:21;;;;;;;;;;;20.50;37.20;;;;;;5077658;28;19927;-59
2022/04/12 03:48:46;;;;;;;;;;;20.50;37.10;;;;;;5067823;28;19915;-59
2022/04/12 03:51:12;;;;;;;;;;;20.60;37.10;;;;;;5074062;28;20002;-59
2022/04/12 03:53:37;;;;;;;;;;;20.60;37.00;;;;;;5072755;28;20372;-60
2022/04/12 03:56:07;;;;;;;;;;;20.60;36.90;;;;;;5084659;28;20392;-59
2022/04/12 03:58:34;;;;;;;;;;;20.70;36.90;;;;;;5083644;28;19908;-59
2022/04/12 04:00:59;;;;;;;;;;;20.70;36.80;;;;;;5064813;28;20411;-60
2022/04/12 04:03:25;;;;;;;;;;;20.80;36.80;;;;;;5081360;28;19916;-59
2022/04/12 04:05:50;;;;;;;;;;;20.80;36.70;;;;;;5081734;28;19916;-60
2022/04/12 04:08:16;;;;;;;;;;;20.80;36.60;;;;;;5090730;28;19909;-60
2022/04/12 04:10:41;;;;;;;;;;;20.80;36.50;;;;;;5075892;28;20012;-59
2022/04/12 04:13:08;;;;;;;;;;;20.80;36.50;;;;;;5076536;28;19916;-59
2022/04/12 04:15:37;;;;;;;;;;;20.80;36.40;;;;;;5076510;28;19913;-59
2022/04/12 04:18:02;;;;;;;;;;;20.80;36.40;;;;;;5074514;28;20372;-59
2022/04/12 04:20:28;;;;;;;;;;;20.80;36.30;;;;;;5075430;28;19999;-59
2022/04/12 04:22:53;;;;;;;;;;;20.90;36.30;;;;;;5076926;28;20334;-59
2022/04/12 04:25:19;;;;;;;;;;;20.90;36.30;;;;;;5084979;28;19922;-59
2022/04/12 04:27:44;;;;;;;;;;;20.80;36.30;;;;;;5077794;28;19923;-59
2022/04/12 04:30:10;;;;;;;;;;;20.80;36.30;;;;;;5073767;28;19918;-59
2022/04/12 04:32:36;;;;;;;;;;;20.80;36.50;;;;;;5083539;28;19950;-59
2022/04/12 04:35:02;;;;;;;;;;;20.80;36.50;;;;;;5070589;28;19920;-59
2022/04/12 04:37:28;;;;;;;;;;;20.70;36.60;;;;;;5072458;28;19912;-59
2022/04/12 04:39:53;;;;;;;;;;;20.60;36.50;;;;;;5074926;28;19908;-59
2022/04/12 04:42:20;;;;;;;;;;;20.60;36.60;;;;;;5075958;28;19947;-60
2022/04/12 04:44:49;;;;;;;;;;;20.60;36.70;;;;;;5082843;28;19916;-59
2022/04/12 04:47:15;;;;;;;;;;;20.60;36.80;;;;;;5069456;28;19916;-59
2022/04/12 04:49:40;;;;;;;;;;;20.60;36.80;;;;;;5080670;28;20193;-59
2022/04/12 04:52:06;;;;;;;;;;;20.50;36.80;;;;;;5088031;28;19923;-59
2022/04/12 04:54:31;;;;;;;;;;;20.50;36.80;;;;;;5081440;28;20318;-59
2022/04/12 04:56:57;;;;;;;;;;;20.50;36.80;;;;;;5068954;28;19913;-59
2022/04/12 04:59:22;;;;;;;;;;;20.50;36.90;;;;;;5074161;28;20380;-59
2022/04/12 05:01:48;;;;;;;;;;;20.40;36.90;;;;;;5070601;28;20372;-59
2022/04/12 05:04:13;;;;;;;;;;;20.40;36.90;;;;;;5078156;28;20288;-59
2022/04/12 05:06:38;;;;;;;;;;;20.40;36.90;;;;;;5073621;28;19917;-59
2022/04/12 05:09:04;;;;;;;;;;;20.40;37.00;;;;;;5077325;28;19975;-59
2022/04/12 05:11:31;;;;;;;;;;;20.40;36.90;;;;;;5077590;28;19962;-59
2022/04/12 05:13:57;;;;;;;;;;;20.40;36.90;;;;;;5078689;28;19916;-59
2022/04/12 05:16:22;;;;;;;;;;;20.40;36.90;;;;;;5066393;28;19981;-59
2022/04/12 05:18:47;;;;;;;;;;;20.40;36.90;;;;;;5071947;28;19912;-59
2022/04/12 05:21:13;;;;;;;;;;;20.40;37.50;;;;;;5066228;28;19920;-59
2022/04/12 05:23:38;;;;;;;;;;;20.40;36.90;;;;;;5078245;28;20007;-60
2022/04/12 05:26:04;;;;;;;;;;;20.40;36.80;;;;;;5073944;28;19920;-60
2022/04/12 05:28:29;;;;;;;;;;;20.40;36.90;;;;;;5076716;28;20467;-60
2022/04/12 05:30:55;;;;;;;;;;;20.40;36.80;;;;;;5072642;28;20003;-59
2022/04/12 05:33:21;;;;;;;;;;;20.40;36.90;;;;;;5077659;28;19917;-59
2022/04/12 05:35:46;;;;;;;;;;;20.40;36.90;;;;;;5073312;28;19919;-59
2022/04/12 05:38:11;;;;;;;;;;;20.40;36.80;;;;;;5089236;28;19916;-58
2022/04/12 05:40:37;;;;;;;;;;;20.40;36.90;;;;;;5077927;28;20375;-59
2022/04/12 05:43:02;;;;;;;;;;;20.40;36.90;;;;;;5073229;28;20343;-59
2022/04/12 05:45:28;;;;;;;;;;;20.40;37.00;;;;;;5084181;28;19913;-59
2022/04/12 05:47:53;;;;;;;;;;;20.40;37.00;;;;;;5076097;28;19940;-59
2022/04/12 05:50:20;;;;;;;;;;;20.40;37.00;;;;;;5071472;28;20016;-59
2022/04/12 05:52:45;;;;;;;;;;;20.40;37.00;;;;;;5073138;28;19962;-59
2022/04/12 05:55:11;;;;;;;;;;;20.40;37.00;;;;;;5080197;28;20363;-59
2022/04/12 05:57:38;;;;;;;;;;;20.30;37.00;;;;;;5080739;28;19920;-59
2022/04/12 06:00:07;;;;;;;;;;;20.40;37.00;;;;;;5070401;28;21977;-59
2022/04/12 06:02:33;;;;;;;;;;;20.40;36.80;;;;;;5072286;28;19943;-59
2022/04/12 06:04:58;;;;;;;;;;;20.40;36.70;;;;;;5073897;28;19921;-59
2022/04/12 06:07:28;;;;;;;;;;;20.40;36.60;;;;;;5080935;28;20398;-59
2022/04/12 06:09:54;;;;;;;;;;;20.50;36.70;;;;;;5084252;28;19995;-59
2022/04/12 06:12:19;;;;;;;;;;;20.50;36.50;;;;;;5085227;28;20004;-59
2022/04/12 06:14:45;;;;;;;;;;;20.60;36.50;;;;;;5090017;28;19927;-59
2022/04/12 06:17:10;;;;;;;;;;;20.60;36.50;;;;;;5093682;28;19915;-60
2022/04/12 06:19:36;;;;;;;;;;;20.60;36.40;;;;;;5081166;28;19912;-60
2022/04/12 06:22:01;;;;;;;;;;;20.60;36.40;;;;;;5074940;28;20398;-60
2022/04/12 06:24:27;;;;;;;;;;;20.60;36.40;;;;;;5092601;28;20395;-59
2022/04/12 06:26:52;;;;;;;;;;;20.60;36.40;;;;;;5069873;28;20409;-58
2022/04/12 06:29:18;;;;;;;;;;;20.60;36.40;;;;;;5086662;28;19908;-59
2022/04/12 06:31:43;;;;;;;;;;;20.60;36.60;;;;;;5084523;28;19928;-59
2022/04/12 06:34:08;;;;;;;;;;;20.70;36.80;;;;;;5064097;28;20048;-59
2022/04/12 06:36:34;;;;;;;;;;;21.00;36.50;;;;;;5080774;28;19917;-59
2022/04/12 06:38:59;;;;;;;;;;;21.40;35.90;;;;;;5089607;28;19912;-59
2022/04/12 06:41:25;;;;;;;;;;;21.80;35.50;;;;;;5079419;28;20402;-59
2022/04/12 06:43:51;;;;;;;;;;;22.20;35.10;;;;;;5089754;28;19931;-61
2022/04/12 06:46:16;;;;;;;;;;;22.60;34.50;;;;;;5076975;28;20275;-61
2022/04/12 06:48:42;;;;;;;;;;;22.80;34.10;;;;;;5067239;28;19912;-61
2022/04/12 06:51:07;;;;;;;;;;;23.00;33.70;;;;;;5073314;28;19908;-62
2022/04/12 06:53:34;;;;;;;;;;;23.20;33.50;;;;;;5078996;28;19920;-59
2022/04/12 06:55:59;;;;;;;;;;;23.40;33.40;;;;;;5072632;28;19923;-60
2022/04/12 06:58:25;;;;;;;;;;;23.50;33.20;;;;;;5075010;28;20015;-60
2022/04/12 07:00:50;;;;;;;;;;;23.50;33.30;;;;;;5073496;28;19924;-61
2022/04/12 07:03:16;;;;;;;;;;;23.50;33.30;;;;;;5084941;28;19912;-61
2022/04/12 07:05:41;;;;;;;;;;;23.50;33.40;;;;;;5082304;28;19921;-60
2022/04/12 07:08:07;;;;;;;;;;;23.50;33.60;;;;;;5077493;28;19912;-61
2022/04/12 07:10:32;;;;;;;;;;;23.50;33.50;;;;;;5079822;28;19928;-60
2022/04/12 07:12:57;;;;;;;;;;;23.50;33.70;;;;;;5073827;28;20363;-60
2022/04/12 07:15:23;;;;;;;;;;;23.50;33.70;;;;;;5084525;28;20282;-60
2022/04/12 07:17:48;;;;;;;;;;;23.50;33.80;;;;;;5074985;28;19966;-60
2022/04/12 07:20:14;;;;;;;;;;;23.50;33.90;;;;;;5080282;28;19912;-61
2022/04/12 07:22:40;;;;;;;;;;;23.50;34.00;;;;;;5074740;28;19956;-61
2022/04/12 07:25:05;;;;;;;;;;;23.50;33.90;;;;;;5076857;28;19913;-60
2022/04/12 07:27:36;;;;;;;;;;;23.50;34.00;;;;;;5074371;28;20395;-60
2022/04/12 07:30:02;;;;;;;;;;;23.50;34.00;;;;;;5072614;28;19976;-59
2022/04/12 07:32:28;;;;;;;;;;;23.50;34.00;;;;;;5069239;28;20065;-61
2022/04/12 07:34:53;;;;;;;;;;;23.50;34.10;;;;;;5082973;28;19994;-59
2022/04/12 07:37:19;;;;;;;;;;;23.50;34.10;;;;;;5076564;28;20011;-60
2022/04/12 07:39:44;;;;;;;;;;;23.50;34.00;;;;;;5068454;28;19916;-59
2022/04/12 07:42:10;;;;;;;;;;;23.50;34.10;;;;;;5084677;28;20390;-61
2022/04/12 07:44:35;;;;;;;;;;;23.50;34.00;;;;;;5079007;28;20295;-59
2022/04/12 07:47:01;;;;;;;;;;;23.60;34.10;;;;;;5078942;28;19917;-59
2022/04/12 07:49:28;;;;;;;;;;;23.60;34.10;;;;;;5087007;28;20003;-61
2022/04/12 07:51:53;;;;;;;;;;;23.60;34.00;;;;;;5083785;28;19931;-59
2022/04/12 07:54:19;;;;;;;;;;;23.60;34.10;;;;;;5078025;28;20291;-62
2022/04/12 07:56:44;;;;;;;;;;;23.60;34.10;;;;;;5071504;28;20391;-60
2022/04/12 07:59:10;;;;;;;;;;;23.60;34.10;;;;;;5072815;28;19916;-61
2022/04/12 08:01:36;;;;;;;;;;;23.70;34.80;;;;;;5071166;28;19913;-61
2022/04/12 08:04:01;;;;;;;;;;;23.70;34.10;;;;;;5073924;28;19930;-60
2022/04/12 08:06:27;;;;;;;;;;;23.70;34.10;;;;;;5077637;28;19919;-61
2022/04/12 08:08:52;;;;;;;;;;;23.70;34.10;;;;;;5077821;28;19960;-60
2022/04/12 08:11:18;;;;;;;;;;;23.70;34.10;;;;;;5081963;28;19940;-60
2022/04/12 08:13:45;;;;;;;;;;;23.70;34.00;;;;;;5071249;28;19920;-60
2022/04/12 08:16:11;;;;;;;;;;;23.70;33.90;;;;;;5071494;28;19912;-60
2022/04/12 08:18:37;;;;;;;;;;;23.70;33.90;;;;;;5073030;28;19912;-60
2022/04/12 08:21:02;;;;;;;;;;;23.70;34.10;;;;;;5073871;28;19967;-59
2022/04/12 08:23:28;;;;;;;;;;;23.70;34.00;;;;;;5078034;28;19952;-61
2022/04/12 08:25:53;;;;;;;;;;;23.80;34.10;;;;;;5077516;28;19916;-61
2022/04/12 08:28:19;;;;;;;;;;;23.80;34.10;;;;;;5089693;28;19913;-59
2022/04/12 08:30:44;;;;;;;;;;;23.80;34.20;;;;;;5081655;28;19962;-61
2022/04/12 08:33:10;;;;;;;;;;;23.80;34.20;;;;;;5076778;28;19920;-62
2022/04/12 08:35:35;;;;;;;;;;;23.90;34.40;;;;;;5071067;28;19981;-62
2022/04/12 08:38:01;;;;;;;;;;;23.90;34.50;;;;;;5071449;28;19916;-61
2022/04/12 08:40:26;;;;;;;;;;;23.90;34.50;;;;;;5075598;28;19923;-59
2022/04/12 08:42:52;;;;;;;;;;;24.00;34.50;;;;;;5080992;28;19923;-60
2022/04/12 08:45:18;;;;;;;;;;;24.00;34.60;;;;;;5077097;28;19912;-61
2022/04/12 08:47:43;;;;;;;;;;;24.00;34.50;;;;;;5075804;28;19965;-61
2022/04/12 08:50:09;;;;;;;;;;;24.00;34.60;;;;;;5068481;28;19951;-62
2022/04/12 08:52:35;;;;;;;;;;;24.00;34.70;;;;;;5084996;28;19916;-60
2022/04/12 08:55:01;;;;;;;;;;;24.00;34.50;;;;;;5079825;28;19913;-61
2022/04/12 08:57:27;;;;;;;;;;;24.00;34.60;;;;;;5075521;28;19913;-61
2022/04/12 08:59:52;;;;;;;;;;;24.00;34.50;;;;;;5076615;28;20296;-59
2022/04/12 09:02:18;;;;;;;;;;;24.00;34.60;;;;;;5079840;28;19928;-60
2022/04/12 09:04:44;;;;;;;;;;;24.00;34.70;;;;;;5076177;28;19917;-61
2022/04/12 09:07:10;;;;;;;;;;;24.00;34.70;;;;;;5076906;28;19925;-60
2022/04/12 09:09:36;;;;;;;;;;;24.00;34.70;;;;;;5079513;28;20012;-61
2022/04/12 09:12:06;;;;;;;;;;;24.00;34.80;;;;;;5077667;28;20003;-60
2022/04/12 09:14:38;;;;;;;;;;;24.00;34.70;;;;;;5083216;28;19991;-61
2022/04/12 09:17:04;;;;;;;;;;;24.10;34.70;;;;;;5074533;28;19952;-59
2022/04/12 09:19:36;;;;;;;;;;;24.10;34.70;;;;;;5079678;28;19913;-60
2022/04/12 09:22:02;;;;;;;;;;;24.10;34.60;;;;;;5080332;28;20450;-58
2022/04/12 09:24:27;;;;;;;;;;;24.10;34.60;;;;;;5065914;28;19960;-60
2022/04/12 09:26:56;;;;;;;;;;;24.10;34.70;;;;;;5075536;28;20350;-59
2022/04/12 09:29:25;;;;;;;;;;;24.10;34.80;;;;;;5077444;28;20132;-60
2022/04/12 09:31:50;;;;;;;;;;;24.10;34.80;;;;;;5090540;28;19920;-60
2022/04/12 09:34:15;;;;;;;;;;;24.00;34.80;;;;;;5074012;28;20334;-60
2022/04/12 09:36:41;;;;;;;;;;;24.00;35.00;;;;;;5070877;28;19952;-61
2022/04/12 09:39:06;;;;;;;;;;;23.90;35.00;;;;;;5084003;28;19912;-61
2022/04/12 09:41:32;;;;;;;;;;;23.90;35.00;;;;;;5075866;28;20019;-59
2022/04/12 09:44:08;;;;;;;;;;;23.90;35.70;;;;;;5079722;28;19938;-62
2022/04/12 09:46:37;;;;;;;;;;;24.00;35.00;;;;;;5075912;28;20356;-61
2022/04/12 09:49:02;;;;;;;;;;;24.00;35.00;;;;;;5079411;28;19951;-61
2022/04/12 09:51:28;;;;;;;;;;;24.10;35.10;;;;;;5079673;28;19958;-62
2022/04/12 09:53:53;;;;;;;;;;;24.10;34.90;;;;;;5082251;28;19920;-61
2022/04/12 09:56:23;;;;;;;;;;;24.10;34.90;;;;;;5079934;28;19993;-62
2022/04/12 09:58:52;;;;;;;;;;;24.10;34.80;;;;;;5074256;28;19912;-62
2022/04/12 10:01:18;;;;;;;;;;;24.30;34.80;;;;;;5087832;28;20430;-62
2022/04/12 10:03:44;;;;;;;;;;;24.50;34.50;;;;;;5078329;28;20008;-60
2022/04/12 10:06:09;;;;;;;;;;;24.70;34.20;;;;;;5080750;28;19931;-62
2022/04/12 10:08:35;;;;;;;;;;;24.90;33.90;;;;;;5068832;28;19995;-61
2022/04/12 10:11:00;;;;;;;;;;;25.10;33.70;;;;;;5083474;28;19920;-61
2022/04/12 10:13:26;;;;;;;;;;;25.20;33.50;;;;;;5074397;28;20372;-61
2022/04/12 10:15:51;;;;;;;;;;;25.20;33.50;;;;;;5090903;28;20399;-61
2022/04/12 10:18:18;;;;;;;;;;;25.20;33.30;;;;;;5078481;28;20277;-61
2022/04/12 10:20:43;;;;;;;;;;;25.20;33.30;;;;;;5080168;28;20358;-61
2022/04/12 10:23:09;;;;;;;;;;;25.30;33.30;;;;;;5072509;28;19924;-60
2022/04/12 10:25:34;;;;;;;;;;;25.40;33.20;;;;;;5087221;28;19916;-60
2022/04/12 10:27:59;;;;;;;;;;;25.40;33.20;;;;;;5079473;28;20011;-61
2022/04/12 10:30:26;;;;;;;;;;;25.40;33.20;;;;;;5084791;28;19908;-62
2022/04/12 10:33:01;;;;;;;;;;;25.40;33.20;;;;;;5082851;28;19920;-61
2022/04/12 10:35:27;;;;;;;;;;;25.20;33.30;;;;;;5071606;28;19912;-61
2022/04/12 10:37:54;;;;;;;;;;;25.20;33.40;;;;;;5074284;28;19970;-63
2022/04/12 10:40:19;;;;;;;;;;;25.20;33.60;;;;;;5079152;28;19912;-60
2022/04/12 10:42:45;;;;;;;;;;;25.10;33.50;;;;;;5081317;28;20441;-62
2022/04/12 10:45:10;;;;;;;;;;;25.20;33.60;;;;;;5082044;28;19913;-60
2022/04/12 10:47:38;;;;;;;;;;;25.30;33.60;;;;;;5080289;28;19912;-62
2022/04/12 10:50:07;;;;;;;;;;;25.30;33.50;;;;;;5066234;28;19916;-61
2022/04/12 10:52:33;;;;;;;;;;;25.30;33.50;;;;;;5081422;28;19912;-62
2022/04/12 10:54:59;;;;;;;;;;;25.30;33.50;;;;;;5074114;28;20390;-62
2022/04/12 10:57:24;;;;;;;;;;;25.30;33.60;;;;;;5075028;28;19917;-60
2022/04/12 11:00:13;;;;;;;;;;;25.30;33.70;;;;;;5081721;28;19916;-62
2022/04/12 11:02:41;;;;;;;;;;;25.30;33.60;;;;;;5071841;28;19948;-60
2022/04/12 11:05:07;;;;;;;;;;;25.40;33.60;;;;;;5072491;28;19919;-60
2022/04/12 11:07:33;;;;;;;;;;;25.40;33.60;;;;;;5072836;28;20010;-62
2022/04/12 11:10:14;;;;;;;;;;;25.30;33.60;;;;;;5091130;28;19908;-62
2022/04/12 11:12:42;;;;;;;;;;;25.40;33.70;;;;;;5078307;28;20340;-61
2022/04/12 11:15:27;;;;;;;;;;;25.40;33.80;;;;;;5069734;28;20387;-62
2022/04/12 11:18:09;;;;;;;;;;;25.30;33.80;;;;;;5082516;28;19912;-62
2022/04/12 11:20:35;;;;;;;;;;;25.30;33.90;;;;;;5092163;28;20349;-62
2022/04/12 11:23:02;;;;;;;;;;;25.30;34.10;;;;;;5082833;28;19916;-61
2022/04/12 11:25:27;;;;;;;;;;;25.30;34.00;;;;;;5080770;28;19918;-61
2022/04/12 11:27:56;;;;;;;;;;;25.30;34.00;;;;;;5079350;28;19912;-61
2022/04/12 11:30:23;;;;;;;;;;;25.30;33.90;;;;;;5073807;28;20334;-59
2022/04/12 11:32:48;;;;;;;;;;;25.30;34.00;;;;;;5068787;28;19973;-59
2022/04/12 11:35:14;;;;;;;;;;;25.30;34.10;;;;;;5077623;28;19912;-61
2022/04/12 11:37:39;;;;;;;;;;;25.20;34.10;;;;;;5073503;28;19916;-60
2022/04/12 11:40:05;;;;;;;;;;;25.30;34.20;;;;;;5088081;28;19919;-62
2022/04/12 11:42:31;;;;;;;;;;;25.30;34.20;;;;;;5078535;28;19999;-61
2022/04/12 11:44:57;;;;;;;;;;;25.30;34.20;;;;;;5079057;28;19917;-60
2022/04/12 11:47:27;;;;;;;;;;;25.40;34.30;;;;;;5083371;28;19916;-61
2022/04/12 11:49:52;;;;;;;;;;;25.40;34.20;;;;;;5091384;28;19962;-59
2022/04/12 11:52:17;;;;;;;;;;;25.40;34.20;;;;;;5080736;28;19952;-60
2022/04/12 11:54:47;;;;;;;;;;;25.40;34.20;;;;;;5076220;28;19924;-60
2022/04/12 11:57:13;;;;;;;;;;;25.40;34.20;;;;;;5081815;28;20410;-60
2022/04/12 11:59:45;;;;;;;;;;;25.40;34.20;;;;;;5080229;28;19913;-59
2022/04/12 12:02:10;;;;;;;;;;;25.50;34.20;;;;;;5079176;28;19916;-62
2022/04/12 12:04:36;;;;;;;;;;;25.50;34.10;;;;;;5086869;28;19912;-62
2022/04/12 12:07:02;;;;;;;;;;;25.50;34.10;;;;;;5082459;28;20124;-62
2022/04/12 12:09:28;;;;;;;;;;;25.50;34.10;;;;;;5078041;28;20367;-62
2022/04/12 12:12:07;;;;;;;;;;;25.40;34.10;;;;;;5084825;28;19912;-62
2022/04/12 12:14:32;;;;;;;;;;;25.40;34.30;;;;;;5087592;28;19953;-62
2022/04/12 12:16:58;;;;;;;;;;;25.40;34.30;;;;;;5085618;28;19920;-62
2022/04/12 12:19:24;;;;;;;;;;;25.40;34.40;;;;;;5080237;28;19912;-61
2022/04/12 12:21:49;;;;;;;;;;;25.40;34.30;;;;;;5077426;28;20292;-62
2022/04/12 12:24:15;;;;;;;;;;;25.50;34.40;;;;;;5091025;28;20290;-62
2022/04/12 12:26:41;;;;;;;;;;;25.50;34.40;;;;;;5075612;28;19913;-62
2022/04/12 12:29:10;;;;;;;;;;;25.50;34.40;;;;;;5079014;28;19920;-61
2022/04/12 12:31:42;;;;;;;;;;;25.50;34.30;;;;;;5078806;28;19922;-60
2022/04/12 12:34:08;;;;;;;;;;;25.60;34.40;;;;;;5063682;28;20047;-60
2022/04/12 12:36:33;;;;;;;;;;;25.60;34.40;;;;;;5077372;28;20006;-61
2022/04/12 12:38:58;;;;;;;;;;;25.60;34.30;;;;;;5083607;28;20291;-61
2022/04/12 12:41:25;;;;;;;;;;;25.60;34.30;;;;;;5085308;28;20021;-60
2022/04/12 12:43:57;;;;;;;;;;;25.60;34.20;;;;;;5088219;28;19971;-60
2022/04/12 12:46:27;;;;;;;;;;;25.60;34.20;;;;;;5083448;28;21299;-62
2022/04/12 12:49:19;;;;;;;;;;;25.60;34.40;;;;;;5083899;28;19913;-61
2022/04/12 12:51:44;;;;;;;;;;;25.60;34.50;;;;;;5073670;28;20284;-60
2022/04/12 12:54:13;;;;;;;;;;;25.50;34.50;;;;;;5079179;28;19969;-60
2022/04/12 12:56:41;;;;;;;;;;;25.60;34.70;;;;;;5075330;28;20000;-61
2022/04/12 12:59:14;;;;;;;;;;;25.60;34.60;;;;;;5073512;28;19916;-60
2022/04/12 13:01:45;;;;;;;;;;;25.60;34.70;;;;;;5087015;28;20291;-62
2022/04/12 13:04:23;;;;;;;;;;;25.50;34.70;;;;;;5066472;28;19916;-62
2022/04/12 13:07:02;;;;;;;;;;;25.50;34.70;;;;;;5077642;28;19912;-61
2022/04/12 13:09:27;;;;;;;;;;;25.60;34.80;;;;;;5076743;28;19935;-62
2022/04/12 13:11:52;;;;;;;;;;;25.50;34.70;;;;;;5075880;28;19917;-61
2022/04/12 13:14:18;;;;;;;;;;;25.50;34.70;;;;;;5080561;28;19962;-61
2022/04/12 13:16:43;;;;;;;;;;;25.50;34.80;;;;;;5082505;28;19947;-61
2022/04/12 13:19:09;;;;;;;;;;;25.50;34.80;;;;;;5090660;28;19919;-60
2022/04/12 13:21:34;;;;;;;;;;;25.50;34.90;;;;;;5081439;28;20333;-60
2022/04/12 13:24:00;;;;;;;;;;;25.60;34.90;;;;;;5075086;28;20371;-61
2022/04/12 13:26:25;;;;;;;;;;;25.60;34.90;;;;;;5076889;28;20367;-60
2022/04/12 13:28:51;;;;;;;;;;;25.60;34.90;;;;;;5078504;28;19908;-61
2022/04/12 13:31:16;;;;;;;;;;;25.70;34.90;;;;;;5085114;28;20276;-60
2022/04/12 13:33:42;;;;;;;;;;;25.80;34.90;;;;;;5087481;28;19920;-61
2022/04/12 13:36:07;;;;;;;;;;;25.90;34.90;;;;;;5068342;28;19924;-60
2022/04/12 13:38:32;;;;;;;;;;;25.80;34.80;;;;;;5075462;28;20004;-61
2022/04/12 13:40:58;;;;;;;;;;;25.90;34.90;;;;;;5089648;28;19916;-61
2022/04/12 13:43:23;;;;;;;;;;;25.80;34.90;;;;;;5089043;28;19927;-60
2022/04/12 13:45:49;;;;;;;;;;;25.80;35.10;;;;;;5084838;28;19913;-58
2022/04/12 13:48:14;;;;;;;;;;;25.70;35.10;;;;;;5084980;28;19923;-60
2022/04/12 13:50:40;;;;;;;;;;;25.70;35.20;;;;;;5081192;28;20422;-60
2022/04/12 13:53:06;;;;;;;;;;;25.60;35.20;;;;;;5085596;28;21908;-62
2022/04/12 13:55:31;;;;;;;;;;;25.60;35.30;;;;;;5085522;28;20417;-60
2022/04/12 13:57:57;;;;;;;;;;;25.60;35.30;;;;;;5075811;28;20003;-60
2022/04/12 14:00:25;;;;;;;;;;;25.60;35.40;;;;;;5082289;28;19913;-61
2022/04/12 14:02:51;;;;;;;;;;;25.60;35.40;;;;;;5088516;28;19950;-61
2022/04/12 14:05:16;;;;;;;;;;;25.60;35.50;;;;;;5088416;28;19927;-59
2022/04/12 14:07:42;;;;;;;;;;;25.50;35.60;;;;;;5084313;28;20391;-60
2022/04/12 14:10:08;;;;;;;;;;;25.50;35.60;;;;;;5067194;28;19920;-61
2022/04/12 14:12:34;;;;;;;;;;;25.50;35.50;;;;;;5072772;28;19934;-61